Lilly, Georgia
Current Conditions -  °F | °C
As of 4:15 AM on Monday 24 Nov 2014 (Local Time) from KCKF Reporting Station
Overcast Overcast  
Wind Chill: 68°   Ceiling: 900
Heat Index: 68°   Visibility: 10mi
Dew Point: 65°   Wind: 6mph
Humidity: 92%   Direction: 210°SSW
Pressure: 29.81"   Gusts: NA
Location:  32.15°N, 83.88°W
Report Text: KCKF 240915Z AUTO 21005KT 10SM OVC009 20/19 A2981 RMK AO2 T01980185
Loading
Personal Weather Stations






























Interactive Weather Map New forecast layout! Learn more

10-Day Weather Forecast

Advertisements
Track Severe Weather on mobile